Time;durP1;ratioP1;P1;durP2;ratioP2;P2;SDS_P1;SDS_P2;PMS_P1;PMS_P2;Temp;Humidity;BMP_temperature;BMP_pressure;BME280_temperature;BME280_humidity;BME280_pressure;Samples;Min_cycle;Max_cycle;Signal;HPM_P1;HPM_P2
2022/05/04 00:01:18;;;;;;;3.53;2.00;;;;;;;10.30;58.76;100743.06;4995957;28;20053;-74
2022/05/04 00:03:43;;;;;;;4.38;1.95;;;;;;;10.31;58.26;100744.81;5017715;28;20046;-74
2022/05/04 00:06:10;;;;;;;4.25;1.80;;;;;;;10.32;58.34;100743.94;4992174;28;20042;-73
2022/05/04 00:08:35;;;;;;;4.40;1.70;;;;;;;10.29;58.99;100738.66;5001205;28;20038;-74
2022/05/04 00:11:01;;;;;;;3.92;2.08;;;;;;;10.24;58.27;100743.03;5002030;28;20492;-74
2022/05/04 00:13:27;;;;;;;4.32;1.90;;;;;;;10.19;59.27;100736.88;4999982;28;20389;-74
2022/05/04 00:15:53;;;;;;;3.78;1.90;;;;;;;10.12;59.09;100735.16;5003055;28;20033;-73
2022/05/04 00:18:18;;;;;;;3.80;1.92;;;;;;;10.06;59.34;100749.19;4998869;28;20038;-73
2022/05/04 00:20:44;;;;;;;4.38;2.45;;;;;;;9.92;59.78;100743.06;5001772;28;20026;-73
2022/05/04 00:23:09;;;;;;;5.63;2.60;;;;;;;9.79;60.83;100739.53;5001489;28;20034;-73
2022/05/04 00:25:34;;;;;;;6.50;2.35;;;;;;;9.74;60.43;100738.66;5000635;28;20118;-74
2022/05/04 00:28:02;;;;;;;4.80;2.35;;;;;;;9.73;60.01;100736.91;5005266;28;20029;-73
2022/05/04 00:30:28;;;;;;;4.78;2.22;;;;;;;9.64;60.47;100737.75;5003564;28;20092;-73
2022/05/04 00:32:54;;;;;;;5.18;2.17;;;;;;;9.59;60.31;100732.50;5011486;28;20045;-73
2022/05/04 00:35:19;;;;;;;4.78;2.85;;;;;;;9.51;61.20;100742.16;5005446;28;20049;-74
2022/05/04 00:37:44;;;;;;;5.35;2.72;;;;;;;9.45;61.63;100731.59;5008193;28;20130;-73
2022/05/04 00:40:10;;;;;;;4.75;2.55;;;;;;;9.47;60.94;100743.03;5009816;28;20083;-74
2022/05/04 00:42:35;;;;;;;4.30;2.30;;;;;;;9.39;61.37;100744.78;5003342;28;20077;-73
2022/05/04 00:45:01;;;;;;;3.80;2.40;;;;;;;9.32;61.75;100740.34;5006390;28;20045;-73
2022/05/04 00:47:26;;;;;;;4.30;2.35;;;;;;;9.23;62.57;100735.09;5003238;28;20038;-73
2022/05/04 00:49:52;;;;;;;4.60;2.42;;;;;;;9.13;62.61;100742.94;5005327;28;20033;-74
2022/05/04 00:52:18;;;;;;;3.63;2.30;;;;;;;9.06;63.03;100741.16;5004283;28;20038;-73
2022/05/04 00:54:46;;;;;;;3.50;2.13;;;;;;;9.07;62.96;100739.44;5004057;28;20149;-73
2022/05/04 00:57:14;;;;;;;4.70;2.40;;;;;;;9.07;62.81;100742.94;5005948;28;20121;-74
2022/05/04 00:59:39;;;;;;;6.07;3.47;;;;;;;9.04;62.54;100742.94;4996753;28;20042;-73
2022/05/04 01:02:05;;;;;;;6.82;2.55;;;;;;;8.93;62.74;100741.97;5004895;28;20041;-73
2022/05/04 01:04:30;;;;;;;4.68;2.55;;;;;;;8.86;63.43;100742.84;5004132;28;20038;-73
2022/05/04 01:06:56;;;;;;;4.22;2.55;;;;;;;8.74;64.88;100747.16;5004032;28;20048;-74
2022/05/04 01:09:21;;;;;;;5.25;2.28;;;;;;;8.66;64.94;100751.53;5004995;28;20061;-74
2022/05/04 01:11:47;;;;;;;4.55;2.70;;;;;;;8.59;65.75;100743.59;5002532;28;20034;-73
2022/05/04 01:14:14;;;;;;;4.35;2.25;;;;;;;8.56;65.09;100755.84;4998799;28;20038;-73
2022/05/04 01:16:41;;;;;;;4.00;2.20;;;;;;;8.54;64.96;100748.81;5005024;28;20041;-73
2022/05/04 01:19:08;;;;;;;4.18;2.33;;;;;;;8.49;65.26;100756.69;5001779;28;20101;-73
2022/05/04 01:21:33;;;;;;;3.58;2.20;;;;;;;8.41;65.42;100758.41;5005415;28;20041;-74
2022/05/04 01:24:00;;;;;;;4.32;2.78;;;;;;;8.33;66.58;100757.41;5005428;28;20037;-74
2022/05/04 01:26:25;;;;;;;5.85;2.85;;;;;;;8.29;66.79;100759.16;4999853;28;20061;-74
2022/05/04 01:28:51;;;;;;;3.70;2.45;;;;;;;8.31;67.36;100754.78;4997032;28;20035;-74
2022/05/04 01:31:16;;;;;;;5.38;3.03;;;;;;;8.19;68.00;100756.47;5001398;28;20628;-74
2022/05/04 01:33:41;;;;;;;4.13;2.67;;;;;;;8.15;67.33;100758.19;5001511;28;20046;-74
2022/05/04 01:36:07;;;;;;;4.85;2.38;;;;;;;8.09;67.76;100755.50;5004277;28;20129;-74
2022/05/04 01:38:33;;;;;;;3.95;2.42;;;;;;;8.07;67.80;100765.16;5002329;28;20222;-73
2022/05/04 01:40:58;;;;;;;4.72;2.72;;;;;;;8.05;67.63;100764.25;5001471;28;20039;-73
2022/05/04 01:43:24;;;;;;;3.17;1.95;;;;;;;8.03;67.69;100758.09;5004960;28;20030;-73
2022/05/04 01:45:49;;;;;;;3.67;2.17;;;;;;;8.01;67.18;100759.81;4993892;28;20030;-73
2022/05/04 01:48:14;;;;;;;6.00;2.08;;;;;;;7.98;68.17;100757.19;5003738;28;20084;-74
2022/05/04 01:50:40;;;;;;;4.45;2.38;;;;;;;8.00;68.32;100755.44;5003829;28;20049;-74
2022/05/04 01:53:06;;;;;;;4.57;2.50;;;;;;;8.04;68.46;100754.59;5001318;28;20044;-73
2022/05/04 01:55:35;;;;;;;4.60;1.95;;;;;;;8.09;67.90;100758.13;5005040;28;20105;-73
2022/05/04 01:58:01;;;;;;;3.88;2.13;;;;;;;8.09;68.09;100763.38;4995040;28;20065;-74
2022/05/04 02:00:27;;;;;;;4.28;2.20;;;;;;;7.99;68.53;100756.28;5001594;28;20048;-73
2022/05/04 02:02:53;;;;;;;7.03;2.33;;;;;;;8.00;68.32;100756.31;5002440;28;20474;-73
2022/05/04 02:05:21;;;;;;;5.25;2.80;;;;;;;7.99;67.66;100757.19;5005458;28;20492;-74
2022/05/04 02:07:46;;;;;;;4.78;2.30;;;;;;;7.98;68.18;100755.41;5001509;28;20136;-74
2022/05/04 02:10:12;;;;;;;6.43;2.50;;;;;;;7.92;67.68;100750.13;5004791;28;20470;-73
2022/05/04 02:12:37;;;;;;;5.93;2.90;;;;;;;7.80;67.69;100750.88;5002292;28;20042;-74
2022/05/04 02:15:08;;;;;;;3.70;2.30;;;;;;;7.79;68.73;100751.75;5001445;28;20409;-73
2022/05/04 02:17:33;;;;;;;4.97;2.88;;;;;;;7.73;68.69;100750.81;5001994;28;20042;-73
2022/05/04 02:19:58;;;;;;;5.35;3.00;;;;;;;7.71;69.02;100749.94;5004436;28;20084;-73
2022/05/04 02:22:23;;;;;;;4.20;2.58;;;;;;;7.65;68.82;100756.91;4999766;28;20503;-74
2022/05/04 02:24:49;;;;;;;5.50;2.75;;;;;;;7.61;69.41;100741.09;5004194;28;20041;-74
2022/05/04 02:27:14;;;;;;;3.67;2.38;;;;;;;7.64;69.23;100749.00;5002063;28;20034;-74
2022/05/04 02:29:40;;;;;;;4.38;2.75;;;;;;;7.61;69.11;100748.97;5000953;28;20413;-74
2022/05/04 02:32:05;;;;;;;3.83;2.70;;;;;;;7.57;69.27;100747.16;5001987;28;20046;-73
2022/05/04 02:34:31;;;;;;;7.22;2.92;;;;;;;7.52;70.82;100748.88;5003885;28;20105;-73
2022/05/04 02:39:40;;;;;;;3.90;2.13;;;;;;;7.44;71.34;100762.81;5001703;28;20039;-74
2022/05/04 02:42:06;;;;;;;5.10;2.58;;;;;;;7.49;72.53;100765.47;5003779;28;20034;-74
2022/05/04 02:44:31;;;;;;;5.72;2.83;;;;;;;7.55;71.21;100762.06;4997139;28;20038;-74
2022/05/04 02:46:56;;;;;;;4.20;2.20;;;;;;;7.62;70.31;100758.59;5003483;28;20038;-74
2022/05/04 02:49:22;;;;;;;4.65;2.60;;;;;;;7.72;70.03;100757.81;5001785;28;20026;-73
2022/05/04 02:51:47;;;;;;;4.63;2.50;;;;;;;7.77;69.36;100758.75;5001259;28;20512;-73
2022/05/04 02:54:12;;;;;;;4.25;2.72;;;;;;;7.82;69.22;100754.41;5003060;28;20049;-74
2022/05/04 02:56:38;;;;;;;4.10;2.47;;;;;;;7.84;69.28;100763.19;5001034;28;20030;-74
2022/05/04 02:59:03;;;;;;;5.85;2.95;;;;;;;7.79;69.33;100751.75;5001516;28;20528;-74
2022/05/04 03:04:13;;;;;;;5.50;2.67;;;;;;;7.72;69.14;100754.31;5000567;28;20038;-73
2022/05/04 03:06:39;;;;;;;4.47;2.90;;;;;;;7.67;69.35;100749.03;5003800;28;20683;-74
2022/05/04 03:09:07;;;;;;;4.47;2.83;;;;;;;7.62;69.95;100756.88;5001079;28;20064;-73
2022/05/04 03:14:18;;;;;;;8.02;3.25;;;;;;;7.43;71.77;100761.03;4998399;28;20113;-74
2022/05/04 03:16:44;;;;;;;7.22;3.20;;;;;;;7.37;73.13;100757.50;5001794;28;20042;-74
2022/05/04 03:19:09;;;;;;;5.10;2.95;;;;;;;7.39;72.70;100758.41;5002660;28;20092;-74
2022/05/04 03:21:35;;;;;;;4.25;2.90;;;;;;;7.46;71.53;100755.81;5000304;28;20101;-73
2022/05/04 03:24:01;;;;;;;6.13;4.10;;;;;;;7.52;71.57;100760.28;5003439;28;20049;-74
2022/05/04 03:26:27;;;;;;;6.95;3.88;;;;;;;7.57;70.77;100755.97;5000686;28;20046;-74
2022/05/04 03:28:52;;;;;;;5.55;3.33;;;;;;;7.57;70.69;100758.59;5002310;28;20026;-74
2022/05/04 03:31:18;;;;;;;7.13;3.40;;;;;;;7.63;71.09;100763.00;4999189;28;20041;-74
2022/05/04 03:33:43;;;;;;;23.75;5.15;;;;;;;7.71;70.88;100758.69;5002525;28;20114;-74
2022/05/04 03:36:09;;;;;;;9.07;3.78;;;;;;;7.69;70.94;100757.81;5000367;28;20037;-73
2022/05/04 03:38:34;;;;;;;6.85;3.45;;;;;;;7.70;71.36;100762.19;5001027;28;20042;-74
2022/05/04 03:40:59;;;;;;;5.63;3.35;;;;;;;7.64;72.65;100767.38;5002874;28;20033;-74
2022/05/04 03:43:25;;;;;;;6.53;3.72;;;;;;;7.62;73.69;100772.66;5001088;28;20049;-74
2022/05/04 03:45:50;;;;;;;13.25;4.13;;;;;;;7.68;75.00;100771.81;5006095;28;20033;-74
2022/05/04 03:48:16;;;;;;;5.13;2.97;;;;;;;7.85;74.23;100777.22;4991878;28;20038;-74
2022/05/04 03:50:44;;;;;;;4.60;2.80;;;;;;;7.98;73.89;100771.19;4999178;28;20030;-73
2022/05/04 03:53:10;;;;;;;6.88;3.45;;;;;;;7.95;73.82;100776.44;4998886;28;20033;-74
2022/05/04 03:55:35;;;;;;;5.32;3.15;;;;;;;8.00;73.03;100781.72;5000071;28;20121;-74
2022/05/04 03:58:01;;;;;;;9.18;3.22;;;;;;;8.06;72.13;100779.13;5002159;28;20045;-73
2022/05/04 04:00:26;;;;;;;9.40;3.50;;;;;;;8.04;72.20;100775.63;5001384;28;20030;-73
2022/05/04 04:02:52;;;;;;;9.15;3.38;;;;;;;8.03;73.03;100769.47;5002143;28;20516;-74
2022/05/04 04:05:17;;;;;;;5.22;3.53;;;;;;;8.13;72.82;100775.69;5005690;28;20034;-73
2022/05/04 04:07:43;;;;;;;8.40;4.10;;;;;;;8.20;72.24;100776.59;5007494;28;20041;-73
2022/05/04 04:10:09;;;;;;;5.45;3.58;;;;;;;8.24;72.11;100778.41;5006802;28;20038;-73
2022/05/04 04:12:34;;;;;;;7.47;2.90;;;;;;;8.24;71.89;100775.78;5000961;28;20042;-74
2022/05/04 04:14:59;;;;;;;24.83;4.38;;;;;;;8.23;71.77;100771.41;5009730;28;20044;-74
2022/05/04 04:17:25;;;;;;;9.75;3.20;;;;;;;8.21;72.29;100779.25;5004900;28;20141;-73
2022/05/04 04:21:50;;;;;;;6.07;3.70;;;;;;;8.22;72.57;100774.88;5006063;28;20030;-74
2022/05/04 04:22:35;;;;;;;6.88;3.08;;;;;;;8.28;73.09;100781.06;5003079;28;20125;-74
2022/05/04 04:25:00;;;;;;;9.07;3.97;;;;;;;8.25;72.84;100788.94;5004242;28;20074;-74
2022/05/04 04:27:27;;;;;;;18.42;5.45;;;;;;;8.25;73.48;100794.22;4997468;28;20057;-74
2022/05/04 04:29:52;;;;;;;11.07;4.78;;;;;;;8.33;73.26;100787.25;5006711;28;20049;-73
2022/05/04 04:32:17;;;;;;;12.48;4.43;;;;;;;8.44;73.76;100791.75;5010006;28;20039;-73
2022/05/04 04:34:42;;;;;;;9.75;3.75;;;;;;;8.51;73.63;100793.53;5004462;28;20034;-74
2022/05/04 04:37:08;;;;;;;8.55;3.65;;;;;;;8.68;72.16;100797.16;4995817;28;20037;-73
2022/05/04 04:39:33;;;;;;;12.93;3.35;;;;;;;8.83;71.53;100795.44;5006494;28;20041;-74
2022/05/04 04:41:58;;;;;;;8.13;3.63;;;;;;;9.01;70.30;100792.91;5002896;28;20037;-74
2022/05/04 04:44:25;;;;;;;5.32;3.72;;;;;;;9.12;70.20;100788.59;5010022;28;20057;-74
2022/05/04 04:46:51;;;;;;;10.15;4.40;;;;;;;9.13;69.95;100790.34;4997490;28;20523;-73
2022/05/04 04:49:16;;;;;;;13.20;4.03;;;;;;;9.18;69.58;100785.09;5003897;28;20030;-73
2022/05/04 04:51:41;;;;;;;16.45;5.13;;;;;;;9.27;69.45;100793.00;5004647;28;20041;-74
2022/05/04 04:54:07;;;;;;;15.55;4.75;;;;;;;9.30;69.76;100792.16;5004845;28;20046;-74
2022/05/04 04:56:32;;;;;;;9.40;4.85;;;;;;;9.33;69.42;100797.44;5006166;28;20026;-74
2022/05/04 04:58:57;;;;;;;7.95;3.80;;;;;;;9.32;69.19;100798.31;4998039;28;20049;-74
2022/05/04 05:01:23;;;;;;;11.18;4.95;;;;;;;9.32;69.66;100800.94;5005251;28;20057;-74
2022/05/04 05:03:48;;;;;;;16.67;5.28;;;;;;;9.25;69.73;100799.16;5008363;28;20034;-73
2022/05/04 05:06:13;;;;;;;11.63;5.25;;;;;;;9.16;71.89;100802.63;5005019;28;20516;-74
2022/05/04 05:08:41;;;;;;;14.60;5.28;;;;;;;8.99;72.90;100805.22;5003950;28;20073;-74
2022/05/04 05:11:07;;;;;;;7.63;3.88;;;;;;;9.09;72.60;100799.13;5003103;28;20049;-74
2022/05/04 05:13:32;;;;;;;16.65;6.97;;;;;;;9.30;71.62;100802.69;5003083;28;20038;-74
2022/05/04 05:16:09;;;;;;;14.40;5.95;;;;;;;9.58;70.13;100798.38;5005046;28;20042;-74
2022/05/04 05:18:36;;;;;;;14.95;6.32;;;;;;;9.81;68.96;100801.94;5002881;28;20049;-74
2022/05/04 05:21:02;;;;;;;11.57;5.32;;;;;;;9.97;68.23;100805.47;5004957;28;20034;-74
2022/05/04 05:23:28;;;;;;;9.57;5.25;;;;;;;10.06;67.75;100802.84;5002420;28;20088;-74
2022/05/04 05:25:53;;;;;;;6.47;3.85;;;;;;;10.19;67.14;100806.38;5000898;28;20656;-74
2022/05/04 05:28:19;;;;;;;6.97;4.18;;;;;;;10.28;66.33;100814.28;5004538;28;20040;-74
2022/05/04 05:30:44;;;;;;;7.13;3.53;;;;;;;10.36;66.66;100811.66;5003731;28;20390;-74
2022/05/04 05:33:09;;;;;;;5.60;3.97;;;;;;;10.39;66.26;100805.50;5003294;28;20066;-74
2022/05/04 05:35:36;;;;;;;9.25;4.57;;;;;;;10.43;65.70;100808.13;5004614;28;20077;-74
2022/05/04 05:38:01;;;;;;;7.32;4.50;;;;;;;10.38;66.11;100807.25;5001577;28;20512;-74
2022/05/04 05:40:26;;;;;;;8.35;4.57;;;;;;;10.38;66.59;100801.09;5001082;28;20045;-74
2022/05/04 05:42:52;;;;;;;7.65;4.70;;;;;;;10.51;66.44;100805.50;5002309;28;20037;-74
2022/05/04 05:45:17;;;;;;;7.82;5.47;;;;;;;10.59;66.34;100813.41;5004795;28;20033;-74
2022/05/04 05:47:43;;;;;;;7.25;4.53;;;;;;;10.61;66.67;100804.59;5000184;28;20046;-74
2022/05/04 05:50:08;;;;;;;6.68;4.45;;;;;;;10.75;66.10;100812.47;4995293;28;20046;-74
2022/05/04 05:52:34;;;;;;;6.80;4.70;;;;;;;10.85;66.00;100806.28;4990858;28;20037;-74
2022/05/04 05:54:59;;;;;;;6.15;4.30;;;;;;;11.00;66.07;100799.19;4998766;28;20072;-74
2022/05/04 05:57:25;;;;;;;9.50;5.13;;;;;;;11.13;65.41;100801.78;4994356;28;20117;-74
2022/05/04 05:59:50;;;;;;;9.98;4.30;;;;;;;11.19;65.37;100800.88;4998227;28;20169;-74
2022/05/04 06:02:16;;;;;;;6.20;4.57;;;;;;;11.14;65.77;100803.53;5003195;28;20436;-74
2022/05/04 06:04:41;;;;;;;7.18;4.35;;;;;;;11.25;65.51;100806.13;5003717;28;20084;-74
2022/05/04 06:07:07;;;;;;;8.88;4.30;;;;;;;11.28;65.49;100803.47;5000799;28;20085;-74
2022/05/04 06:09:32;;;;;;;7.57;4.13;;;;;;;11.33;65.42;100806.97;5003769;28;20137;-74
2022/05/04 06:11:57;;;;;;;9.68;4.43;;;;;;;11.40;65.64;100803.41;5000428;28;20078;-74
2022/05/04 06:14:22;;;;;;;9.15;4.22;;;;;;;11.52;65.40;100796.31;5003996;28;20086;-74
2022/05/04 06:16:49;;;;;;;8.02;3.88;;;;;;;11.70;64.45;100797.97;5002002;28;20472;-74
2022/05/04 06:19:15;;;;;;;9.85;4.22;;;;;;;11.87;64.34;100801.41;5000853;28;20496;-74
2022/05/04 06:21:40;;;;;;;11.80;4.88;;;;;;;11.99;63.41;100798.66;5006605;28;20041;-74
2022/05/04 06:24:06;;;;;;;11.98;5.10;;;;;;;12.13;63.31;100803.84;5004143;28;20481;-74
2022/05/04 06:26:32;;;;;;;7.47;4.90;;;;;;;12.27;63.24;100804.59;4999298;28;20034;-74
2022/05/04 06:28:57;;;;;;;6.57;4.18;;;;;;;12.43;62.35;100804.47;4999252;28;20129;-74
2022/05/04 06:34:06;;;;;;;5.75;4.65;;;;;;;12.66;61.93;100809.53;5003565;28;20083;-74
2022/05/04 06:36:34;;;;;;;8.63;4.93;;;;;;;12.80;61.43;100812.03;5007614;28;20046;-74
2022/05/04 06:38:59;;;;;;;6.63;4.32;;;;;;;12.90;61.19;100808.41;5008689;28;20029;-74
2022/05/04 06:41:24;;;;;;;8.00;5.80;;;;;;;13.02;60.52;100812.66;5002825;28;20038;-74
2022/05/04 06:43:50;;;;;;;8.13;5.80;;;;;;;13.22;60.44;100815.94;5001898;28;20027;-74
2022/05/04 06:46:16;;;;;;;8.05;4.22;;;;;;;13.42;59.79;100810.44;4995675;28;20540;-74
2022/05/04 06:48:41;;;;;;;6.60;4.57;;;;;;;13.56;59.51;100804.94;5005530;28;20030;-74
2022/05/04 06:51:07;;;;;;;6.57;4.10;;;;;;;13.78;58.40;100821.41;5003092;28;20519;-74
2022/05/04 06:53:33;;;;;;;7.00;4.68;;;;;;;13.98;58.28;100811.38;5005798;28;20046;-74
2022/05/04 06:55:59;;;;;;;7.18;4.70;;;;;;;14.17;57.26;100814.63;4995320;28;20049;-74
2022/05/04 06:58:24;;;;;;;6.82;3.75;;;;;;;14.38;57.28;100805.44;4999575;28;20034;-74
2022/05/04 07:00:49;;;;;;;6.50;4.43;;;;;;;14.65;56.75;100803.22;5003549;28;20032;-74
2022/05/04 07:03:15;;;;;;;7.68;4.72;;;;;;;14.99;56.11;100808.75;5006072;28;20026;-74
2022/05/04 07:05:40;;;;;;;6.68;4.22;;;;;;;15.24;55.59;100809.09;5002121;28;20512;-74
2022/05/04 07:08:06;;;;;;;5.95;4.60;;;;;;;15.49;54.51;100800.63;5002379;28;20487;-74
2022/05/04 07:10:31;;;;;;;15.77;8.65;;;;;;;15.70;54.17;100797.50;5006625;28;20034;-74
2022/05/04 07:12:57;;;;;;;12.35;5.80;;;;;;;15.97;53.30;100813.72;5002653;28;20400;-74
2022/05/04 07:15:22;;;;;;;9.45;6.53;;;;;;;15.89;51.54;100808.59;5000345;28;20038;-74
2022/05/04 07:17:48;;;;;;;9.57;5.43;;;;;;;16.06;52.38;100802.88;5000974;28;20087;-74
2022/05/04 07:20:13;;;;;;;5.53;4.35;;;;;;;16.09;52.23;100813.44;5001780;28;20109;-74
2022/05/04 07:22:38;;;;;;;6.57;4.35;;;;;;;16.09;52.42;100813.44;5006717;28;20041;-74
2022/05/04 07:25:04;;;;;;;7.85;4.47;;;;;;;16.27;51.13;100809.44;5004489;28;20164;-73
2022/05/04 07:27:30;;;;;;;5.60;3.92;;;;;;;16.23;51.08;100813.09;4998349;28;20535;-74
2022/05/04 07:29:55;;;;;;;8.60;4.38;;;;;;;16.38;50.94;100819.84;5003721;28;20171;-74
2022/05/04 07:32:20;;;;;;;7.82;3.85;;;;;;;16.48;49.97;100816.03;4998625;28;20046;-74
2022/05/04 07:34:46;;;;;;;4.63;3.42;;;;;;;16.65;50.08;100811.09;5006640;28;20031;-74
2022/05/04 07:37:11;;;;;;;9.25;4.38;;;;;;;16.70;50.12;100810.97;5001665;28;20064;-74
2022/05/04 07:42:22;;;;;;;10.77;4.22;;;;;;;17.14;49.47;100808.03;4996282;28;20046;-74
2022/05/04 07:44:57;;;;;;;5.75;3.72;;;;;;;17.19;49.01;100806.13;5000062;28;20042;-74
2022/05/04 07:47:22;;;;;;;6.82;4.75;;;;;;;17.08;49.07;100801.97;4999793;28;20038;-74
2022/05/04 07:49:48;;;;;;;9.77;6.82;;;;;;;17.16;49.07;100798.19;4996175;28;20038;-74
2022/05/04 07:52:13;;;;;;;7.80;4.70;;;;;;;17.20;48.70;100802.53;5001976;28;20041;-74
2022/05/04 07:54:38;;;;;;;12.85;7.63;;;;;;;17.09;48.34;100798.38;5001030;28;20433;-73
2022/05/04 07:57:04;;;;;;;9.77;6.00;;;;;;;17.00;48.45;100798.66;4999751;28;20520;-77
2022/05/04 07:59:30;;;;;;;7.35;4.32;;;;;;;17.03;48.54;100798.56;5000409;28;20062;-73
2022/05/04 08:04:39;;;;;;;7.03;4.45;;;;;;;16.87;48.50;100797.22;4998437;28;20042;-74
2022/05/04 08:07:04;;;;;;;6.82;4.38;;;;;;;16.85;48.89;100799.06;5002490;28;20033;-74
2022/05/04 08:09:34;;;;;;;7.88;5.93;;;;;;;17.12;48.44;100804.53;5002488;28;20033;-74
2022/05/04 08:11:59;;;;;;;7.68;5.70;;;;;;;17.38;48.34;100799.31;5001787;28;20458;-74
2022/05/04 08:14:25;;;;;;;9.00;5.95;;;;;;;17.48;46.22;100795.44;5002180;28;20045;-74
2022/05/04 08:16:50;;;;;;;9.93;5.00;;;;;;;17.30;45.62;100801.34;5001677;28;20497;-73
2022/05/04 08:19:16;;;;;;;7.10;5.20;;;;;;;17.30;45.53;100801.34;4999283;28;20030;-74
2022/05/04 08:21:41;;;;;;;6.90;4.40;;;;;;;17.54;45.81;100797.03;5004606;28;20034;-74
2022/05/04 08:24:07;;;;;;;6.32;4.47;;;;;;;17.78;45.56;100792.72;5003973;28;20046;-74
2022/05/04 08:26:33;;;;;;;6.68;4.60;;;;;;;18.01;45.50;100796.50;4999254;28;20037;-74
2022/05/04 08:28:58;;;;;;;7.47;3.92;;;;;;;18.28;44.94;100792.91;5001791;28;20420;-73
2022/05/04 08:31:23;;;;;;;7.78;5.50;;;;;;;18.59;44.06;100791.84;5002935;28;20943;-73
2022/05/04 08:33:49;;;;;;;8.43;4.65;;;;;;;18.70;43.65;100795.00;5001830;28;20497;-74
2022/05/04 08:36:15;;;;;;;5.82;3.40;;;;;;;18.77;43.25;100793.91;4996935;28;20030;-74
2022/05/04 08:38:40;;;;;;;5.78;3.50;;;;;;;18.92;43.44;100788.94;4996591;28;20105;-73
2022/05/04 08:41:07;;;;;;;7.32;3.70;;;;;;;19.13;42.56;100792.63;4994797;28;20041;-73
2022/05/04 08:43:32;;;;;;;11.35;4.47;;;;;;;19.30;42.50;100789.28;4993901;28;20493;-74
2022/05/04 08:46:00;;;;;;;6.85;5.57;;;;;;;19.43;42.05;100780.72;5001219;28;20081;-74
2022/05/04 08:48:26;;;;;;;10.88;9.25;;;;;;;19.54;41.81;100788.31;5001474;28;20038;-74
2022/05/04 08:50:54;;;;;;;10.70;7.85;;;;;;;19.63;41.73;100787.97;5011438;28;20117;-74
2022/05/04 08:53:19;;;;;;;9.98;6.53;;;;;;;19.72;40.08;100777.88;4990280;28;20039;-74
2022/05/04 08:55:46;;;;;;;7.70;6.30;;;;;;;19.70;38.35;100784.16;5002537;28;20041;-74
2022/05/04 08:58:12;;;;;;;7.88;3.95;;;;;;;19.79;38.37;100784.72;5002985;28;20042;-73
2022/05/04 09:00:37;;;;;;;6.97;3.33;;;;;;;19.81;38.80;100785.53;5003953;28;20041;-74
2022/05/04 09:03:03;;;;;;;7.18;3.40;;;;;;;19.88;38.30;100782.53;4993861;28;20090;-74
2022/05/04 09:05:32;;;;;;;8.60;3.85;;;;;;;19.97;36.39;100775.94;5009463;28;20100;-74
2022/05/04 09:07:58;;;;;;;6.60;3.03;;;;;;;20.00;36.80;100775.81;5001838;28;20034;-74
2022/05/04 09:10:34;;;;;;;6.50;2.70;;;;;;;20.09;36.23;100770.06;5007606;28;20100;-74
2022/05/04 09:12:59;;;;;;;6.65;3.40;;;;;;;20.22;36.88;100774.91;5005679;28;20042;-74
2022/05/04 09:15:35;;;;;;;4.78;3.13;;;;;;;20.40;36.56;100773.25;5002680;28;20089;-74
2022/05/04 09:18:07;;;;;;;5.78;2.30;;;;;;;20.51;33.23;100771.88;5003006;28;20492;-74
2022/05/04 09:20:53;;;;;;;5.63;3.10;;;;;;;20.69;34.72;100761.28;5005484;28;20034;-74
2022/05/04 09:23:30;;;;;;;5.22;2.50;;;;;;;20.91;34.17;100755.84;5001913;28;20058;-74
2022/05/04 09:25:58;;;;;;;6.90;2.75;;;;;;;20.99;33.63;100757.22;4998193;28;20038;-74
2022/05/04 09:28:26;;;;;;;5.35;2.15;;;;;;;21.24;34.36;100756.06;5004386;28;20562;-74
2022/05/04 09:30:55;;;;;;;5.43;2.25;;;;;;;21.44;32.47;100752.50;5000797;28;20029;-74
2022/05/04 09:33:23;;;;;;;5.55;2.67;;;;;;;21.56;32.92;100764.44;5008908;28;20076;-74
2022/05/04 09:35:49;;;;;;;4.28;2.63;;;;;;;21.93;32.99;100755.47;5002475;28;20058;-74
2022/05/04 09:46:36;;;;;;;4.30;2.50;;;;;;;22.41;32.24;100750.41;5002173;28;20048;-74
2022/05/04 09:49:21;;;;;;;6.97;2.80;;;;;;;22.76;32.37;100752.06;5003708;28;20104;-74
2022/05/04 09:51:51;;;;;;;8.43;3.35;;;;;;;22.96;32.62;100755.53;5000340;28;20030;-74
2022/05/04 09:54:21;;;;;;;8.52;4.13;;;;;;;22.83;31.82;100746.38;5005068;28;20448;-74
2022/05/04 09:56:49;;;;;;;14.57;5.50;;;;;;;22.75;31.89;100750.34;5005622;28;20105;-74
2022/05/04 09:59:16;;;;;;;6.68;3.70;;;;;;;22.62;32.36;100749.25;5004027;28;20280;-74
2022/05/04 10:01:42;;;;;;;6.28;2.80;;;;;;;22.59;31.91;100754.81;4997801;28;20045;-74
2022/05/04 10:04:08;;;;;;;4.65;2.80;;;;;;;22.60;32.29;100748.47;4997384;28;20037;-74
2022/05/04 10:06:35;;;;;;;5.53;2.92;;;;;;;22.45;32.39;100755.53;5002522;28;20040;-74
2022/05/04 10:09:02;;;;;;;5.63;3.40;;;;;;;22.34;32.59;100748.97;5003913;28;20077;-74
2022/05/04 10:11:28;;;;;;;6.50;3.30;;;;;;;21.87;32.14;100751.25;5003564;28;20117;-74
2022/05/04 10:13:55;;;;;;;5.93;2.65;;;;;;;21.79;33.07;100752.59;5002712;28;20034;-74
2022/05/04 10:16:22;;;;;;;5.45;3.22;;;;;;;21.69;33.22;100748.59;5002401;28;20139;-74
2022/05/04 10:18:48;;;;;;;4.32;3.05;;;;;;;21.87;32.83;100745.88;5000143;28;20042;-74
2022/05/04 10:21:17;;;;;;;6.50;3.40;;;;;;;21.94;32.77;100750.97;5003565;28;20400;-74
2022/05/04 10:23:55;;;;;;;5.32;3.65;;;;;;;21.79;32.74;100741.84;5004072;28;20050;-74
2022/05/04 10:26:35;;;;;;;8.68;4.00;;;;;;;21.69;32.64;100744.09;5003538;28;20042;-74
2022/05/04 10:31:53;;;;;;;6.70;3.50;;;;;;;21.53;33.25;100741.28;4999573;28;20030;-74
2022/05/04 10:34:19;;;;;;;6.95;4.00;;;;;;;21.42;33.18;100739.13;5002650;28;20041;-74
2022/05/04 10:36:51;;;;;;;6.55;3.47;;;;;;;21.40;33.24;100741.00;5006149;28;20046;-74
2022/05/04 10:39:21;;;;;;;4.18;2.80;;;;;;;21.32;34.01;100739.59;5003773;28;20109;-74
2022/05/04 10:41:46;;;;;;;6.78;2.92;;;;;;;21.31;34.30;100736.06;5017274;28;20038;-73
2022/05/04 10:44:12;;;;;;;8.68;5.90;;;;;;;21.35;33.61;100736.78;4991964;28;20034;-74
2022/05/04 10:46:40;;;;;;;5.28;3.53;;;;;;;21.39;33.71;100733.91;5003445;28;20564;-73
2022/05/04 10:49:10;;;;;;;6.70;3.28;;;;;;;21.30;33.47;100734.34;5000180;28;20029;-74
2022/05/04 10:51:35;;;;;;;9.77;5.80;;;;;;;21.20;34.39;100736.56;5004114;28;20037;-74
2022/05/04 10:54:34;;;;;;;7.65;3.97;;;;;;;21.22;33.92;100736.47;5003358;28;20104;-74
2022/05/04 10:56:59;;;;;;;7.68;3.83;;;;;;;21.05;34.13;100728.38;4949926;28;20058;-74
2022/05/04 10:59:31;;;;;;;7.50;3.20;;;;;;;20.93;34.20;100733.38;5000910;28;20092;-76
2022/05/04 11:02:00;;;;;;;5.82;3.13;;;;;;;20.75;35.28;100731.50;5002014;28;20100;-74
2022/05/04 11:04:26;;;;;;;7.35;3.40;;;;;;;20.70;35.18;100733.53;4998491;28;20038;-74
2022/05/04 11:07:03;;;;;;;10.98;4.10;;;;;;;20.73;34.56;100734.25;5007007;28;20084;-74
2022/05/04 11:09:32;;;;;;;8.57;3.72;;;;;;;20.73;35.23;100734.25;5004511;28;20049;-74
2022/05/04 11:12:00;;;;;;;13.82;3.33;;;;;;;20.85;34.99;100735.50;5010795;28;20104;-74
2022/05/04 11:14:26;;;;;;;6.22;2.70;;;;;;;20.84;34.63;100731.09;4996701;28;20033;-74
2022/05/04 11:16:55;;;;;;;4.32;3.00;;;;;;;20.94;35.10;100737.78;5001269;28;20038;-74
2022/05/04 11:19:26;;;;;;;5.22;2.88;;;;;;;21.06;35.11;100724.72;5001410;28;20034;-74
2022/05/04 11:21:53;;;;;;;6.73;3.00;;;;;;;21.21;35.16;100737.44;4996120;28;20066;-74
2022/05/04 11:24:18;;;;;;;7.15;2.95;;;;;;;21.17;34.63;100727.81;5001554;28;20299;-74
2022/05/04 11:26:45;;;;;;;6.10;2.85;;;;;;;21.26;35.02;100732.72;4999105;28;20034;-74
2022/05/04 11:29:19;;;;;;;9.27;3.10;;;;;;;21.20;34.94;100731.19;4998409;28;20157;-74
2022/05/04 11:31:57;;;;;;;5.05;2.70;;;;;;;21.24;35.21;100723.88;5001606;28;20126;-74
2022/05/04 11:34:24;;;;;;;4.60;2.28;;;;;;;21.23;35.56;100728.38;5003536;28;20038;-74
2022/05/04 11:36:53;;;;;;;9.52;3.17;;;;;;;21.16;35.10;100726.91;4997166;28;20046;-74
2022/05/04 11:39:24;;;;;;;5.47;3.03;;;;;;;21.19;34.96;100721.38;4990695;28;20034;-74
2022/05/04 11:41:51;;;;;;;5.60;2.53;;;;;;;21.23;35.22;100722.13;5000429;28;20563;-74
2022/05/04 11:44:21;;;;;;;7.40;3.70;;;;;;;21.22;34.93;100720.38;5001222;28;20044;-74
2022/05/04 11:46:49;;;;;;;6.80;3.05;;;;;;;21.15;34.77;100724.31;5003213;28;20034;-74
2022/05/04 11:49:15;;;;;;;7.78;3.40;;;;;;;21.18;33.98;100718.81;4996595;28;20078;-74
2022/05/04 11:51:42;;;;;;;6.30;3.17;;;;;;;21.22;35.26;100721.28;5002014;28;20061;-74